Time;durP1;ratioP1;P1;durP2;ratioP2;P2;SDS_P1;SDS_P2;PMS_P1;PMS_P2;Temp;Humidity;BMP_temperature;BMP_pressure;BME280_temperature;BME280_humidity;BME280_pressure;Samples;Min_cycle;Max_cycle;Signal;HPM_P1;HPM_P2
2021/10/22 00:01:17;;;;;;;;;;;;;;;19.01;68.50;100866.75;5050398;28;1511;-49
2021/10/22 00:03:44;;;;;;;;;;;;;;;19.03;68.34;100880.00;5045850;28;1856;-48
2021/10/22 00:06:12;;;;;;;;;;;;;;;19.01;68.79;100866.75;5052428;28;1978;-48
2021/10/22 00:08:39;;;;;;;;;;;;;;;19.02;68.82;100889.91;5052976;28;1509;-48
2021/10/22 00:11:09;;;;;;;;;;;;;;;19.02;68.34;100878.31;5053983;28;1635;-48
2021/10/22 00:13:35;;;;;;;;;;;;;;;18.99;69.13;100882.09;5053586;28;1761;-48
2021/10/22 00:16:04;;;;;;;;;;;;;;;18.98;68.21;100877.75;5053112;28;1555;-47
2021/10/22 00:18:33;;;;;;;;;;;;;;;19.01;68.23;100882.81;5052760;28;1990;-48
2021/10/22 00:21:01;;;;;;;;;;;;;;;18.98;68.10;100888.47;5050067;28;1705;-48
2021/10/22 00:23:36;;;;;;;;;;;;;;;18.97;68.34;100878.72;5053011;28;1532;-48
2021/10/22 00:26:06;;;;;;;;;;;;;;;18.96;69.09;100874.34;5050844;28;1906;-48
2021/10/22 00:28:41;;;;;;;;;;;;;;;18.98;69.22;100879.56;5044859;28;1667;-48
2021/10/22 00:31:09;;;;;;;;;;;;;;;19.05;69.93;100878.91;5048645;28;2668;-48
2021/10/22 00:33:37;;;;;;;;;;;;;;;19.07;68.93;100876.94;5053306;28;1611;-48
2021/10/22 00:36:05;;;;;;;;;;;;;;;19.08;68.47;100883.16;5045791;28;1914;-48
2021/10/22 00:38:32;;;;;;;;;;;;;;;19.04;68.40;100885.25;5052468;28;1733;-48
2021/10/22 00:41:01;;;;;;;;;;;;;;;19.01;68.38;100890.88;5051936;28;1567;-48
2021/10/22 00:43:31;;;;;;;;;;;;;;;19.02;68.36;100894.38;5053082;28;1583;-48
2021/10/22 00:45:59;;;;;;;;;;;;;;;19.00;68.06;100883.81;5049693;28;1906;-49
2021/10/22 00:48:25;;;;;;;;;;;;;;;19.02;69.37;100900.63;5053350;28;1520;-48
2021/10/22 00:51:05;;;;;;;;;;;;;;;18.98;68.18;100888.47;5052428;28;2029;-48
2021/10/22 00:53:41;;;;;;;;;;;;;;;18.98;67.96;100887.59;5045484;28;1556;-48
2021/10/22 00:56:09;;;;;;;;;;;;;;;19.00;67.72;100883.81;5044715;28;1662;-48
2021/10/22 00:58:46;;;;;;;;;;;;;;;19.00;67.85;100882.94;5045892;28;1634;-48
2021/10/22 01:01:26;;;;;;;;;;;;;;;18.98;67.66;100883.09;5049811;28;1518;-48
2021/10/22 01:03:53;;;;;;;;;;;;;;;18.99;67.99;100883.94;5049636;28;1602;-48
2021/10/22 01:06:21;;;;;;;;;;;;;;;18.99;67.66;100887.47;5052853;28;1901;-48
2021/10/22 01:08:48;;;;;;;;;;;;;;;18.95;67.49;100878.00;5052056;28;1624;-48
2021/10/22 01:11:16;;;;;;;;;;;;;;;18.98;68.48;100887.59;5047646;28;1572;-48
2021/10/22 01:13:46;;;;;;;;;;;;;;;18.95;68.22;100894.06;5051929;28;1596;-48
2021/10/22 01:16:12;;;;;;;;;;;;;;;18.95;67.99;100894.06;5051649;28;1541;-48
2021/10/22 01:18:47;;;;;;;;;;;;;;;18.96;68.09;100885.06;5041746;28;1486;-47
2021/10/22 01:21:17;;;;;;;;;;;;;;;18.93;68.39;100887.16;5048572;28;1924;-48
2021/10/22 01:23:47;;;;;;;;;;;;;;;18.92;68.11;100888.13;5045244;28;1631;-48
2021/10/22 01:26:14;;;;;;;;;;;;;;;18.95;67.53;100888.72;5050601;28;1902;-48
2021/10/22 01:28:42;;;;;;;;;;;;;;;18.92;67.16;100880.09;5048135;28;1546;-48
2021/10/22 01:31:10;;;;;;;;;;;;;;;18.88;66.92;100877.69;5044100;28;1595;-48
2021/10/22 01:33:37;;;;;;;;;;;;;;;18.92;67.85;100889.00;5046381;28;1570;-48
2021/10/22 01:36:07;;;;;;;;;;;;;;;18.92;66.79;100889.00;5052315;28;1307;-48
2021/10/22 01:38:35;;;;;;;;;;;;;;;18.89;66.98;100881.22;5052349;28;1729;-48
2021/10/22 01:41:03;;;;;;;;;;;;;;;18.92;67.66;100899.72;5052096;28;1565;-48
2021/10/22 01:43:30;;;;;;;;;;;;;;;18.90;66.65;100898.13;5043886;28;1711;-48
2021/10/22 01:45:57;;;;;;;;;;;;;;;18.92;66.98;100898.84;5052584;28;1521;-49
2021/10/22 01:48:25;;;;;;;;;;;;;;;18.89;67.31;100886.56;5050003;28;1973;-48
2021/10/22 01:50:52;;;;;;;;;;;;;;;18.94;66.82;100892.41;5043891;28;1727;-48
2021/10/22 01:53:20;;;;;;;;;;;;;;;18.88;67.34;100903.63;5043503;28;2282;-48
2021/10/22 01:55:54;;;;;;;;;;;;;;;18.86;67.54;100890.38;5049925;28;1637;-48
2021/10/22 01:58:23;;;;;;;;;;;;;;;18.86;66.95;100889.50;5040958;28;1943;-48
2021/10/22 02:00:50;;;;;;;;;;;;;;;18.87;66.61;100886.69;5151516;22;3706;-47
2021/10/22 02:03:16;;;;;;;;;;;;;;;18.89;66.94;100889.25;4995943;28;1788;-46
2021/10/22 02:05:46;;;;;;;;;;;;;;;18.92;66.87;100902.41;5010601;28;1700;-46
2021/10/22 02:08:16;;;;;;;;;;;;;;;18.87;66.72;100897.41;5010131;28;1898;-45
2021/10/22 02:10:45;;;;;;;;;;;;;;;18.85;66.31;100903.88;5010893;28;2319;-45
2021/10/22 02:13:17;;;;;;;;;;;;;;;18.86;67.24;100892.19;5008185;28;1806;-45
2021/10/22 02:15:44;;;;;;;;;;;;;;;18.86;66.24;100906.44;5009606;28;1676;-46
2021/10/22 02:18:12;;;;;;;;;;;;;;;18.87;66.44;100907.28;5002966;28;1525;-45
2021/10/22 02:20:40;;;;;;;;;;;;;;;18.86;66.78;100917.16;5003985;28;1664;-44
2021/10/22 02:23:09;;;;;;;;;;;;;;;18.87;66.54;100918.84;5014272;28;2037;-46
2021/10/22 02:25:45;;;;;;;;;;;;;;;19.05;66.30;100908.38;5011423;28;1480;-45
2021/10/22 02:30:54;;;;;;;;;;;;;;;19.66;64.36;100912.06;5012032;28;2123;-46
2021/10/22 02:33:22;;;;;;;;;;;;;;;19.64;63.83;100933.66;5014311;28;1917;-45
2021/10/22 02:35:51;;;;;;;;;;;;;;;19.65;64.93;100913.84;5011875;28;1790;-45
2021/10/22 02:38:17;;;;;;;;;;;;;;;19.76;63.77;100912.97;5012703;28;2154;-45
2021/10/22 02:40:44;;;;;;;;;;;;;;;19.83;64.72;100926.66;5001181;28;1785;-45
2021/10/22 02:43:11;;;;;;;;;;;;;;;19.79;64.58;100928.75;5014126;28;1674;-46
2021/10/22 02:45:41;;;;;;;;;;;;;;;19.85;63.34;100908.59;5012460;28;1828;-45
2021/10/22 02:48:10;;;;;;;;;;;;;;;19.88;63.38;100918.22;5011824;28;1910;-45
2021/10/22 02:53:20;;;;;;;;;;;;;;;19.98;63.26;100930.66;5012476;28;2510;-47
2021/10/22 02:55:49;;;;;;;;;;;;;;;19.92;64.48;100946.47;5008205;28;1697;-47
2021/10/22 02:58:17;;;;;;;;;;;;;;;19.74;64.53;100917.63;5008090;28;1530;-47
2021/10/22 03:00:44;;;;;;;;;;;;;;;19.61;64.37;100949.16;5013175;28;1705;-47
2021/10/22 03:03:15;;;;;;;;;;;;;;;19.64;65.21;100932.81;5011366;28;1904;-47
2021/10/22 03:05:50;;;;;;;;;;;;;;;19.95;63.99;100932.78;5007944;28;1741;-47
2021/10/22 03:08:18;;;;;;;;;;;;;;;19.95;63.34;100946.19;5008588;28;1926;-47
2021/10/22 03:10:45;;;;;;;;;;;;;;;19.91;63.10;100937.56;5000174;28;1803;-47
2021/10/22 03:13:15;;;;;;;;;;;;;;;19.79;64.76;100944.03;5008658;28;1675;-47
2021/10/22 03:15:43;;;;;;;;;;;;;;;19.65;64.81;100943.38;5010918;28;1688;-47
2021/10/22 03:18:12;;;;;;;;;;;;;;;19.56;64.74;100943.38;5012459;28;1747;-47
2021/10/22 03:20:48;;;;;;;;;;;;;;;19.82;63.44;100967.91;5010988;28;1694;-47
2021/10/22 03:23:17;;;;;;;;;;;;;;;20.03;63.71;100938.28;5006199;28;1693;-47
2021/10/22 03:25:44;;;;;;;;;;;;;;;19.84;64.41;100953.38;5007951;28;2298;-49
2021/10/22 03:28:11;;;;;;;;;;;;;;;19.73;64.46;100964.19;5014269;28;1906;-47
2021/10/22 03:30:43;;;;;;;;;;;;;;;19.63;64.46;100963.28;5013063;28;1676;-47
2021/10/22 03:33:12;;;;;;;;;;;;;;;19.82;63.61;100958.03;5013046;28;1797;-47
2021/10/22 03:35:44;;;;;;;;;;;;;;;20.01;63.06;100957.22;5012358;28;1681;-47
2021/10/22 03:38:14;;;;;;;;;;;;;;;19.90;62.08;100969.94;5004012;28;1520;-47
2021/10/22 03:40:41;;;;;;;;;;;;;;;19.75;63.77;100972.13;5004601;28;1703;-48
2021/10/22 03:43:09;;;;;;;;;;;;;;;19.58;63.39;100960.16;5011768;28;1523;-48
2021/10/22 03:45:39;;;;;;;;;;;;;;;19.60;64.54;100974.28;5010937;28;1773;-47
2021/10/22 03:48:06;;;;;;;;;;;;;;;19.69;63.79;100976.16;5012452;28;1967;-47
2021/10/22 03:50:42;;;;;;;;;;;;;;;19.71;63.48;100976.91;5008939;28;1986;-47
2021/10/22 03:53:11;;;;;;;;;;;;;;;19.70;64.57;100964.44;5010230;28;1993;-47
2021/10/22 03:55:39;;;;;;;;;;;;;;;19.78;64.12;100959.28;5005361;28;1501;-47
2021/10/22 03:58:06;;;;;;;;;;;;;;;19.70;64.98;100960.94;5011474;28;1803;-47
2021/10/22 04:00:34;;;;;;;;;;;;;;;19.58;65.33;100961.00;5003238;28;1714;-48
2021/10/22 04:03:04;;;;;;;;;;;;;;;19.45;65.61;100961.22;4999668;28;2048;-47
2021/10/22 04:05:32;;;;;;;;;;;;;;;19.41;64.79;100959.78;5009950;28;1718;-47
2021/10/22 04:07:59;;;;;;;;;;;;;;;19.33;64.73;100966.81;5013417;28;1997;-47
2021/10/22 04:10:34;;;;;;;;;;;;;;;19.28;65.55;100967.22;5013117;28;1923;-47
2021/10/22 04:13:01;;;;;;;;;;;;;;;19.28;65.20;100964.53;5002236;28;3243;-47
2021/10/22 04:15:31;;;;;;;;;;;;;;;19.30;66.01;100957.22;5006759;28;1661;-47
2021/10/22 04:17:59;;;;;;;;;;;;;;;19.26;65.30;100953.09;5012281;28;1772;-47
2021/10/22 04:20:26;;;;;;;;;;;;;;;19.16;66.58;100969.13;5011305;28;1656;-47
2021/10/22 04:22:54;;;;;;;;;;;;;;;19.15;65.72;100975.44;5013290;28;1669;-47
2021/10/22 04:25:21;;;;;;;;;;;;;;;19.15;67.02;100967.41;5010559;28;2091;-47
2021/10/22 04:27:53;;;;;;;;;;;;;;;19.12;67.16;100975.72;5011341;28;1906;-48
2021/10/22 04:30:21;;;;;;;;;;;;;;;19.08;67.43;100968.94;5005289;28;1758;-47
2021/10/22 04:32:52;;;;;;;;;;;;;;;19.07;66.41;100967.22;5008781;28;2047;-47
2021/10/22 04:35:19;;;;;;;;;;;;;;;19.05;66.70;100953.94;5011697;28;1982;-48
2021/10/22 04:38:00;;;;;;;;;;;;;;;19.04;67.01;100975.53;5004409;28;1709;-47
2021/10/22 04:40:41;;;;;;;;;;;;;;;19.01;67.39;100971.25;5005095;28;1480;-49
2021/10/22 04:43:15;;;;;;;;;;;;;;;19.01;67.93;100976.63;5011744;28;1665;-47
2021/10/22 04:45:49;;;;;;;;;;;;;;;19.08;67.26;100971.63;5008468;28;1895;-46
2021/10/22 04:48:16;;;;;;;;;;;;;;;19.08;67.44;100974.28;5011467;28;1977;-47
2021/10/22 04:50:52;;;;;;;;;;;;;;;19.08;66.73;100979.66;5010003;28;2313;-47
2021/10/22 04:53:27;;;;;;;;;;;;;;;19.11;67.14;100989.25;5010784;28;1735;-47
2021/10/22 04:56:02;;;;;;;;;;;;;;;19.10;66.83;100976.81;5011323;28;1650;-47
2021/10/22 04:58:30;;;;;;;;;;;;;;;19.07;66.97;100981.47;5003942;28;1762;-47
2021/10/22 05:00:57;;;;;;;;;;;;;;;19.05;68.24;100967.34;5011420;28;1693;-46
2021/10/22 05:03:23;;;;;;;;;;;;;;;19.08;67.89;100963.56;5010557;28;1567;-46
2021/10/22 05:05:51;;;;;;;;;;;;;;;19.04;67.63;100968.34;5012528;28;1709;-46
2021/10/22 05:08:18;;;;;;;;;;;;;;;19.02;68.87;100967.63;5011353;28;1967;-48
2021/10/22 05:10:46;;;;;;;;;;;;;;;19.02;68.79;100981.03;5005493;28;1409;-48
2021/10/22 05:13:14;;;;;;;;;;;;;;;19.00;67.67;100971.38;5004570;28;1526;-47
2021/10/22 05:15:43;;;;;;;;;;;;;;;19.03;68.75;100977.34;5010534;28;1734;-46
2021/10/22 05:18:14;;;;;;;;;;;;;;;19.04;67.49;100980.91;5011175;28;1661;-47
2021/10/22 05:20:44;;;;;;;;;;;;;;;19.11;68.07;100983.91;5003990;28;1674;-47
2021/10/22 05:25:51;;;;;;;;;;;;;;;19.12;68.35;100997.19;5004329;28;2505;-47
2021/10/22 05:28:17;;;;;;;;;;;;;;;19.12;68.10;101007.03;5006355;28;1972;-50
2021/10/22 05:30:49;;;;;;;;;;;;;;;19.11;68.15;100991.94;5011989;28;1724;-46
2021/10/22 05:33:21;;;;;;;;;;;;;;;19.10;69.24;101003.63;5003822;28;1800;-47
2021/10/22 05:35:50;;;;;;;;;;;;;;;19.12;68.17;101005.22;5009194;28;1785;-47
2021/10/22 05:38:18;;;;;;;;;;;;;;;19.10;68.81;101017.91;5006944;28;1688;-48
2021/10/22 05:40:45;;;;;;;;;;;;;;;19.12;68.75;101031.16;5008535;28;2044;-46
2021/10/22 05:43:12;;;;;;;;;;;;;;;19.15;68.23;101034.44;5009492;28;1482;-46
2021/10/22 05:45:53;;;;;;;;;;;;;;;19.12;68.35;101023.09;5005305;28;1693;-46
2021/10/22 05:48:28;;;;;;;;;;;;;;;19.18;68.71;101036.88;5010270;28;1906;-49
2021/10/22 05:50:55;;;;;;;;;;;;;;;19.21;69.27;101049.16;5012264;28;1784;-47
2021/10/22 05:53:24;;;;;;;;;;;;;;;19.24;68.30;101038.19;5013784;28;1646;-47
2021/10/22 05:55:53;;;;;;;;;;;;;;;19.19;63.31;101045.75;5009246;28;1618;-47
2021/10/22 05:58:20;;;;;;;;;;;;;;;19.29;68.22;101049.34;5010215;28;1475;-47
2021/10/22 06:00:50;;;;;;;;;;;;;;;19.40;67.40;101059.16;5011237;28;1664;-48
2021/10/22 06:03:17;;;;;;;;;;;;;;;19.37;68.83;101044.16;5005527;28;1669;-47
2021/10/22 06:05:53;;;;;;;;;;;;;;;19.36;68.58;101058.56;5006819;28;1698;-48
2021/10/22 06:08:22;;;;;;;;;;;;;;;18.81;65.17;101064.06;5008608;28;1914;-47
2021/10/22 06:10:51;;;;;;;;;;;;;;;19.31;68.43;101059.94;5004549;28;11646;-48
2021/10/22 06:13:18;;;;;;;;;;;;;;;19.55;68.47;101068.56;5011048;28;1585;-49
2021/10/22 06:15:45;;;;;;;;;;;;;;;19.55;67.14;101065.03;5010889;28;1412;-47
2021/10/22 06:18:15;;;;;;;;;;;;;;;19.59;67.39;101074.53;5008181;28;1786;-47
2021/10/22 06:26:13;;;;;;;;;;;;;;;19.66;67.92;101094.50;5010338;28;1666;-48
2021/10/22 06:28:39;;;;;;;;;;;;;;;19.69;68.32;101080.78;5011919;28;2001;-47
2021/10/22 06:31:06;;;;;;;;;;;;;;;19.66;68.27;101089.97;5002550;28;1763;-47
2021/10/22 06:33:32;;;;;;;;;;;;;;;19.75;68.22;101088.34;5002400;28;1376;-48
2021/10/22 06:36:00;;;;;;;;;;;;;;;19.93;67.61;101099.31;5008249;28;1812;-45
2021/10/22 06:38:27;;;;;;;;;;;;;;;19.86;67.57;101093.63;5008864;28;2323;-46
2021/10/22 06:40:54;;;;;;;;;;;;;;;19.76;67.84;101097.25;5009195;28;1437;-45
2021/10/22 06:43:21;;;;;;;;;;;;;;;19.71;68.75;101078.84;5002578;28;1504;-47
2021/10/22 06:45:47;;;;;;;;;;;;;;;19.85;68.31;101107.19;5006968;28;1603;-46
2021/10/22 06:48:14;;;;;;;;;;;;;;;19.84;67.22;101106.34;5006902;28;2247;-46
2021/10/22 06:50:40;;;;;;;;;;;;;;;19.85;68.36;101108.03;5004442;28;1958;-46
2021/10/22 06:53:08;;;;;;;;;;;;;;;19.84;67.55;101100.13;5002678;28;1619;-46
2021/10/22 06:55:35;;;;;;;;;;;;;;;19.70;68.59;101103.97;5005464;28;1544;-46
2021/10/22 06:58:01;;;;;;;;;;;;;;;19.76;68.50;101108.84;5006767;28;1643;-46
2021/10/22 07:00:28;;;;;;;;;;;;;;;19.86;67.94;101114.25;5006723;28;1488;-46
2021/10/22 07:02:56;;;;;;;;;;;;;;;19.79;69.32;101103.19;5008232;28;1502;-46
2021/10/22 07:05:34;;;;;;;;;;;;;;;19.69;68.25;101107.63;5006883;28;1534;-46
2021/10/22 07:08:00;;;;;;;;;;;;;;;19.83;69.22;101106.47;5009804;28;1997;-46
2021/10/22 07:10:28;;;;;;;;;;;;;;;19.85;68.07;101101.81;5007799;28;1618;-46
2021/10/22 07:12:55;;;;;;;;;;;;;;;19.83;69.00;101115.34;5008413;28;1853;-46
2021/10/22 07:15:21;;;;;;;;;;;;;;;19.75;68.58;101123.22;5007625;28;1852;-46
2021/10/22 07:17:48;;;;;;;;;;;;;;;19.71;69.67;101108.38;5007119;28;1531;-46
2021/10/22 07:20:15;;;;;;;;;;;;;;;19.71;68.35;101119.09;5005311;28;1655;-46
2021/10/22 07:22:48;;;;;;;;;;;;;;;19.77;69.95;101110.53;5005925;28;1539;-46
2021/10/22 07:25:14;;;;;;;;;;;;;;;19.79;62.70;101116.59;4999884;28;1918;-46
2021/10/22 07:27:42;;;;;;;;;;;;;;;19.89;69.19;101121.19;5002489;28;1803;-46
2021/10/22 07:30:11;;;;;;;;;;;;;;;19.92;68.72;101116.41;4998769;28;1910;-46
2021/10/22 07:32:38;;;;;;;;;;;;;;;19.98;68.25;101134.66;5000042;28;1549;-46
2021/10/22 07:35:05;;;;;;;;;;;;;;;19.95;69.69;101124.19;5004349;28;1556;-46
2021/10/22 07:37:34;;;;;;;;;;;;;;;19.94;69.80;101109.06;5011576;28;1578;-46
2021/10/22 07:40:01;;;;;;;;;;;;;;;20.04;68.42;101130.59;5008562;28;2227;-46
2021/10/22 07:42:27;;;;;;;;;;;;;;;19.91;69.58;101127.28;5003337;28;1468;-46
2021/10/22 07:44:56;;;;;;;;;;;;;;;19.93;70.11;101131.53;5003338;28;1655;-46
2021/10/22 07:47:23;;;;;;;;;;;;;;;19.94;69.34;101132.41;5007476;28;1651;-46
2021/10/22 07:49:49;;;;;;;;;;;;;;;19.97;68.48;101132.09;4999836;28;2260;-47
2021/10/22 07:52:26;;;;;;;;;;;;;;;20.12;69.55;101133.47;5011594;28;1855;-46
2021/10/22 07:57:41;;;;;;;;;;;;;;;20.11;69.71;101138.97;5009613;28;2214;-46
2021/10/22 08:00:10;;;;;;;;;;;;;;;20.16;68.41;101132.22;5008631;28;1457;-46
2021/10/22 08:02:38;;;;;;;;;;;;;;;20.18;69.61;101146.34;5010509;28;1536;-46
2021/10/22 08:05:09;;;;;;;;;;;;;;;20.14;68.25;101118.06;5002723;28;1710;-46
2021/10/22 08:07:38;;;;;;;;;;;;;;;20.17;68.97;101123.16;5010832;28;1373;-46
2021/10/22 08:10:05;;;;;;;;;;;;;;;20.08;66.32;101129.34;5010651;28;1906;-46
2021/10/22 08:12:39;;;;;;;;;;;;;;;20.11;69.79;101126.38;5001665;28;1875;-46
2021/10/22 08:15:06;;;;;;;;;;;;;;;20.14;69.26;101123.44;5009916;28;1609;-46
2021/10/22 08:17:34;;;;;;;;;;;;;;;20.13;71.20;101137.00;5004500;28;1553;-46
2021/10/22 08:20:05;;;;;;;;;;;;;;;20.08;70.17;101126.66;5000521;28;1646;-46
2021/10/22 08:22:33;;;;;;;;;;;;;;;20.08;71.52;101133.88;5013980;28;1552;-46
2021/10/22 08:25:02;;;;;;;;;;;;;;;20.14;71.81;101128.81;5007842;28;1563;-46
2021/10/22 08:27:30;;;;;;;;;;;;;;;20.14;72.03;101133.34;5010154;28;1625;-46
2021/10/22 08:29:57;;;;;;;;;;;;;;;20.20;70.95;101116.69;5000102;28;2021;-46
2021/10/22 08:32:24;;;;;;;;;;;;;;;20.10;71.70;101137.28;5003491;28;1714;-46
2021/10/22 08:34:52;;;;;;;;;;;;;;;20.16;71.96;101131.38;5006753;28;1807;-46
2021/10/22 08:37:18;;;;;;;;;;;;;;;20.17;71.67;101127.69;5006869;28;1670;-45
2021/10/22 08:39:47;;;;;;;;;;;;;;;20.13;71.64;101118.19;5002577;28;2314;-46
2021/10/22 08:42:21;;;;;;;;;;;;;;;20.11;70.60;101112.97;5007413;28;1690;-46
2021/10/22 08:44:48;;;;;;;;;;;;;;;20.11;71.28;101118.34;5005795;28;1614;-46
2021/10/22 08:47:14;;;;;;;;;;;;;;;20.16;70.76;101132.22;4999712;28;1474;-46
2021/10/22 08:49:40;;;;;;;;;;;;;;;20.12;70.02;101120.03;5007492;28;1969;-46
2021/10/22 08:52:08;;;;;;;;;;;;;;;20.12;70.71;101085.16;5006639;28;1703;-46
2021/10/22 08:54:36;;;;;;;;;;;;;;;20.15;69.85;101098.28;5003702;28;1582;-47
2021/10/22 08:57:03;;;;;;;;;;;;;;;20.15;70.24;101119.75;5003022;28;1734;-46
2021/10/22 08:59:29;;;;;;;;;;;;;;;20.15;68.07;101109.03;5001364;28;2006;-46
2021/10/22 09:02:09;;;;;;;;;;;;;;;20.14;69.06;101099.28;5003200;28;1640;-47
2021/10/22 09:04:36;;;;;;;;;;;;;;;20.13;67.79;101119.03;5006581;28;1619;-47
2021/10/22 09:07:03;;;;;;;;;;;;;;;20.12;69.39;101095.88;5003855;28;1926;-47
2021/10/22 09:09:30;;;;;;;;;;;;;;;20.17;67.54;101090.94;5006238;28;1973;-47
2021/10/22 09:11:57;;;;;;;;;;;;;;;20.12;68.66;101098.56;5009093;28;1549;-46
2021/10/22 09:14:25;;;;;;;;;;;;;;;20.10;66.36;101105.06;5001707;28;1674;-47
2021/10/22 09:16:53;;;;;;;;;;;;;;;20.13;66.54;101104.78;5008096;28;1717;-47
2021/10/22 09:19:27;;;;;;;;;;;;;;;20.20;65.98;101090.69;5004826;28;1532;-47
2021/10/22 09:21:56;;;;;;;;;;;;;;;20.21;66.94;101113.00;5003660;28;1250;-47
2021/10/22 09:24:22;;;;;;;;;;;;;;;20.27;66.26;101094.53;5011161;28;1876;-47
2021/10/22 09:26:52;;;;;;;;;;;;;;;20.29;66.94;101096.22;5009217;28;1479;-46
2021/10/22 09:29:20;;;;;;;;;;;;;;;20.13;66.28;101100.25;4998239;28;1989;-47
2021/10/22 09:31:47;;;;;;;;;;;;;;;20.18;66.39;101098.03;5013232;28;1538;-47
2021/10/22 09:34:28;;;;;;;;;;;;;;;20.18;66.99;101108.75;5005667;28;1544;-47
2021/10/22 09:37:10;;;;;;;;;;;;;;;20.10;64.67;101095.16;5012146;28;1319;-46
2021/10/22 09:39:40;;;;;;;;;;;;;;;20.17;65.47;101085.56;5012909;28;1717;-47
2021/10/22 09:42:15;;;;;;;;;;;;;;;20.26;65.69;101100.03;5016280;28;1657;-47
2021/10/22 09:44:48;;;;;;;;;;;;;;;20.23;65.47;101090.44;5006870;28;1591;-46
2021/10/22 09:47:16;;;;;;;;;;;;;;;20.22;67.89;101102.13;5014305;28;1538;-47
2021/10/22 09:49:45;;;;;;;;;;;;;;;20.13;65.57;101094.88;5010338;28;2012;-47
2021/10/22 09:55:12;;;;;;;;;;;;;;;20.04;66.72;101080.44;4946987;28;10769;-47
2021/10/22 09:57:54;;;;;;;;;;;;;;;20.01;66.40;101087.91;5015120;28;1663;-47
2021/10/22 10:00:33;;;;;;;;;;;;;;;19.95;66.80;101089.28;4315315;28;10000704;-47
2021/10/22 10:03:09;;;;;;;;;;;;;;;19.93;66.71;101077.84;4999734;28;1827;-47
2021/10/22 10:05:41;;;;;;;;;;;;;;;20.09;67.82;101071.13;4999404;28;1787;-47
2021/10/22 10:08:09;;;;;;;;;;;;;;;20.16;66.70;101073.16;5002460;28;1646;-47
2021/10/22 10:10:44;;;;;;;;;;;;;;;20.27;67.47;101056.94;5004735;28;1965;-47
2021/10/22 10:13:18;;;;;;;;;;;;;;;20.27;68.15;101089.16;5012914;28;1704;-47
2021/10/22 10:15:44;;;;;;;;;;;;;;;20.15;67.74;101076.78;5008633;28;1423;-47
2021/10/22 10:18:16;;;;;;;;;;;;;;;20.11;68.03;101079.91;4997014;28;2188;-47
2021/10/22 10:20:43;;;;;;;;;;;;;;;20.07;67.00;101071.25;4995569;28;1577;-47
2021/10/22 10:23:10;;;;;;;;;;;;;;;20.03;67.70;101057.28;4995431;28;1751;-48
2021/10/22 10:25:36;;;;;;;;;;;;;;;20.03;67.10;101068.03;5000983;28;1496;-48
2021/10/22 10:28:05;;;;;;;;;;;;;;;20.01;68.23;101058.38;5000893;28;1704;-47
2021/10/22 10:30:34;;;;;;;;;;;;;;;19.99;67.66;101071.09;4998535;28;1910;-47
2021/10/22 10:33:01;;;;;;;;;;;;;;;20.01;67.68;101053.84;5009006;28;1600;-47
2021/10/22 10:35:33;;;;;;;;;;;;;;;19.99;68.03;101058.50;5007404;28;1699;-47
2021/10/22 10:37:59;;;;;;;;;;;;;;;20.00;67.26;101045.97;5007714;28;1727;-48
2021/10/22 10:40:27;;;;;;;;;;;;;;;20.00;67.83;101046.81;5010439;28;1387;-47
2021/10/22 10:42:58;;;;;;;;;;;;;;;19.98;69.21;101037.19;5008451;28;1790;-47
2021/10/22 10:45:45;;;;;;;;;;;;;;;19.96;68.56;101045.38;5014068;28;1700;-47
2021/10/22 10:48:14;;;;;;;;;;;;;;;20.05;68.42;101039.19;5012956;28;1870;-47
2021/10/22 10:50:48;;;;;;;;;;;;;;;20.18;68.50;101036.25;5003830;28;10999;-47
2021/10/22 10:53:19;;;;;;;;;;;;;;;20.13;68.62;101057.28;5003773;28;2008;-48
2021/10/22 10:55:46;;;;;;;;;;;;;;;20.15;68.31;101030.31;5008172;28;1495;-49
2021/10/22 10:58:20;;;;;;;;;;;;;;;20.17;68.35;101050.66;5008257;28;1544;-48
2021/10/22 11:01:07;;;;;;;;;;;;;;;20.18;68.91;101038.94;5008275;28;1286;-48
2021/10/22 11:03:45;;;;;;;;;;;;;;;20.11;69.27;101029.72;5006734;28;1265;-48
2021/10/22 11:06:35;;;;;;;;;;;;;;;20.05;68.76;101038.34;5005871;28;1516;-48
2021/10/22 11:12:03;;;;;;;;;;;;;;;20.12;68.87;101038.66;5013348;28;2311;-48
2021/10/22 11:14:44;;;;;;;;;;;;;;;20.08;70.29;101032.72;5005481;28;1527;-48
2021/10/22 11:17:13;;;;;;;;;;;;;;;20.04;69.42;101017.84;5003592;28;2264;-48
2021/10/22 11:19:42;;;;;;;;;;;;;;;20.16;69.20;101016.75;5011557;28;1657;-46
2021/10/22 11:22:18;;;;;;;;;;;;;;;20.17;69.55;101023.81;5013281;28;1571;-48
2021/10/22 11:24:48;;;;;;;;;;;;;;;20.09;69.77;101022.81;5009489;28;1668;-47
2021/10/22 11:27:17;;;;;;;;;;;;;;;20.10;69.77;101014.63;5005692;28;1765;-47
2021/10/22 11:29:48;;;;;;;;;;;;;;;20.08;69.14;101030.03;5004983;28;1906;-48
2021/10/22 11:35:31;;;;;;;;;;;;;;;19.97;69.80;100992.53;5003488;28;2593;-47
2021/10/22 11:38:03;;;;;;;;;;;;;;;20.14;70.18;101009.84;5010234;28;1555;-48
2021/10/22 11:40:35;;;;;;;;;;;;;;;20.11;69.54;101000.19;5014902;28;1939;-47
2021/10/22 11:43:13;;;;;;;;;;;;;;;20.10;70.35;101011.94;5010477;28;1706;-47
2021/10/22 11:45:51;;;;;;;;;;;;;;;20.19;69.73;100976.22;5010920;28;1531;-47
2021/10/22 11:51:19;;;;;;;;;;;;;;;20.30;71.22;100983.28;5008411;28;2484;-48
2021/10/22 11:53:46;;;;;;;;;;;;;;;20.29;71.08;100983.44;5003584;28;1694;-48
2021/10/22 11:56:12;;;;;;;;;;;;;;;20.18;70.04;100990.63;5006455;28;1504;-48
2021/10/22 11:58:43;;;;;;;;;;;;;;;20.21;70.39;100990.34;5008237;28;1683;-47
2021/10/22 12:01:18;;;;;;;;;;;;;;;20.26;70.05;100976.50;5008816;28;2529;-49
2021/10/22 12:06:27;;;;;;;;;;;;;;;20.27;71.20;100979.06;5009015;28;2117;-48
2021/10/22 12:08:55;;;;;;;;;;;;;;;20.25;70.80;100983.72;5009770;28;1621;-48
2021/10/22 12:11:38;;;;;;;;;;;;;;;20.17;70.66;100972.78;5008301;28;1906;-49
2021/10/22 12:14:08;;;;;;;;;;;;;;;20.11;71.84;100991.31;5015338;28;1499;-49
2021/10/22 12:16:34;;;;;;;;;;;;;;;20.11;71.36;101010.09;5013034;28;1572;-48
2021/10/22 12:19:01;;;;;;;;;;;;;;;20.15;70.96;101009.66;5002370;28;1093;-49
2021/10/22 12:21:30;;;;;;;;;;;;;;;20.11;71.93;101000.19;5000219;28;1705;-49
2021/10/22 12:23:57;;;;;;;;;;;;;;;20.05;71.64;101007.00;5006766;28;1803;-49
2021/10/22 12:26:33;;;;;;;;;;;;;;;20.09;71.50;100969.97;5009262;28;1727;-48
2021/10/22 12:29:01;;;;;;;;;;;;;;;20.09;71.93;100993.28;5006177;28;1772;-49
2021/10/22 12:31:36;;;;;;;;;;;;;;;20.07;71.91;101006.81;5006152;28;1910;-48
2021/10/22 12:34:07;;;;;;;;;;;;;;;19.99;71.39;100982.50;5000059;28;1599;-49
2021/10/22 12:36:46;;;;;;;;;;;;;;;20.05;71.29;100985.50;5009639;28;1573;-49
2021/10/22 12:39:28;;;;;;;;;;;;;;;20.12;71.19;100972.38;5008353;28;1538;-49
2021/10/22 12:41:57;;;;;;;;;;;;;;;20.04;70.51;100985.63;5005481;28;1624;-49
2021/10/22 12:44:34;;;;;;;;;;;;;;;19.97;71.06;100979.09;5002519;28;1541;-48
2021/10/22 12:47:01;;;;;;;;;;;;;;;19.98;70.70;100967.41;5011643;28;1937;-49
2021/10/22 12:49:40;;;;;;;;;;;;;;;19.92;70.79;100976.84;5003202;28;1511;-48
2021/10/22 12:52:08;;;;;;;;;;;;;;;19.90;72.01;100965.41;5011104;28;1460;-49
2021/10/22 12:54:51;;;;;;;;;;;;;;;19.93;70.81;100983.06;5006214;28;1654;-49
2021/10/22 12:57:24;;;;;;;;;;;;;;;19.92;71.99;100986.75;5004314;28;2124;-49
2021/10/22 12:59:51;;;;;;;;;;;;;;;19.91;71.49;100966.25;5001495;28;1644;-49
2021/10/22 13:02:33;;;;;;;;;;;;;;;19.90;71.60;100988.72;5003952;28;1809;-49
2021/10/22 13:05:12;;;;;;;;;;;;;;;20.00;71.98;100978.84;5009132;28;1697;-48
2021/10/22 13:07:48;;;;;;;;;;;;;;;20.00;71.42;100958.22;5011701;28;1570;-48
2021/10/22 13:10:35;;;;;;;;;;;;;;;20.08;72.18;100968.28;5011772;28;1977;-49
2021/10/22 13:13:15;;;;;;;;;;;;;;;20.02;72.03;100971.50;5003552;28;1558;-48
2021/10/22 13:21:11;;;;;;;;;;;;;;;19.94;71.71;100968.66;5005991;28;1625;-48
2021/10/22 13:23:39;;;;;;;;;;;;;;;19.99;71.83;100995.94;4994327;28;1759;-49
2021/10/22 13:26:10;;;;;;;;;;;;;;;19.97;71.40;100963.00;4998320;28;1737;-49
2021/10/22 13:28:36;;;;;;;;;;;;;;;19.99;71.39;100971.78;4998737;28;1734;-50
2021/10/22 13:31:05;;;;;;;;;;;;;;;20.03;71.25;100959.78;4999326;28;1981;-49
2021/10/22 13:33:32;;;;;;;;;;;;;;;20.01;71.02;100938.44;5007973;28;1450;-49
2021/10/22 13:35:59;;;;;;;;;;;;;;;20.05;71.21;100958.66;5001689;28;2328;-48